createdAt,value
2019-05-01T00:00:20.681Z,36.20
2019-05-01T00:03:09.225Z,38.00
2019-05-01T00:05:39.764Z,36.60
2019-05-01T00:08:09.322Z,39.10
2019-05-01T00:10:38.087Z,40.52
2019-05-01T00:13:07.033Z,39.15
2019-05-01T00:15:37.413Z,40.67
2019-05-01T00:18:06.214Z,38.33
2019-05-01T00:20:34.891Z,37.17
2019-05-01T00:23:03.581Z,41.58
2019-05-01T00:25:35.512Z,40.78
2019-05-01T00:28:04.854Z,39.53
2019-05-01T00:30:35.172Z,39.88
2019-05-01T00:33:03.881Z,38.17
2019-05-01T00:35:33.640Z,36.73
2019-05-01T00:38:02.292Z,38.78
2019-05-01T00:40:30.941Z,35.43
2019-05-01T00:42:59.548Z,33.83
2019-05-01T00:45:28.181Z,32.95
2019-05-01T00:47:56.826Z,35.55
2019-05-01T00:50:25.802Z,35.60
2019-05-01T00:52:54.557Z,33.75
2019-05-01T00:55:39.653Z,34.67
2019-05-01T00:58:27.430Z,32.95
2019-05-01T01:01:03.529Z,31.62
2019-05-01T01:03:32.279Z,32.25
2019-05-01T01:06:01.122Z,30.50
2019-05-01T01:08:29.829Z,31.40
2019-05-01T01:10:58.464Z,31.95
2019-05-01T01:13:27.090Z,35.08
2019-05-01T01:15:55.768Z,36.73
2019-05-01T01:18:24.564Z,35.33
2019-05-01T01:20:53.245Z,36.03
2019-05-01T01:23:22.415Z,35.63
2019-05-01T01:25:53.276Z,37.35
2019-05-01T01:28:22.739Z,35.68
2019-05-01T01:30:56.433Z,33.85
2019-05-01T01:33:21.908Z,33.33
2019-05-01T01:35:50.590Z,32.63
2019-05-01T01:38:19.227Z,34.53
2019-05-01T01:40:47.972Z,32.63
2019-05-01T01:43:35.213Z,33.20
2019-05-01T01:46:09.234Z,29.85
2019-05-01T01:48:38.081Z,29.80
2019-05-01T01:51:06.912Z,28.50
2019-05-01T01:53:35.865Z,26.65
2019-05-01T01:56:04.637Z,26.55
2019-05-01T01:58:33.591Z,27.25
2019-05-01T02:01:20.298Z,24.87
2019-05-01T02:03:50.885Z,27.13
2019-05-01T02:06:19.517Z,26.40
2019-05-01T02:08:56.326Z,26.87
2019-05-01T02:11:18.734Z,26.80
2019-05-01T02:13:47.698Z,25.05
2019-05-01T02:16:16.516Z,26.07
2019-05-01T02:18:45.215Z,27.42
2019-05-01T02:21:13.919Z,26.30
2019-05-01T02:23:42.616Z,26.62
2019-05-01T02:26:13.133Z,26.73
2019-05-01T02:28:43.668Z,23.52
2019-05-01T02:31:28.366Z,25.23
2019-05-01T02:33:53.008Z,26.68
2019-05-01T02:36:23.918Z,25.77
2019-05-01T02:38:54.413Z,26.17
2019-05-01T02:41:25.810Z,26.90
2019-05-01T02:43:56.950Z,27.73
2019-05-01T02:46:26.898Z,29.07
2019-05-01T02:49:04.402Z,30.15
2019-05-01T02:51:34.021Z,29.20
2019-05-01T02:54:03.076Z,28.75
2019-05-01T02:56:36.890Z,28.23
2019-05-01T02:59:07.454Z,26.62
2019-05-01T03:01:46.972Z,29.80
2019-05-01T03:04:10.218Z,29.40
2019-05-01T03:06:40.257Z,28.05
2019-05-01T03:09:09.059Z,27.50
2019-05-01T03:11:40.164Z,28.62
2019-05-01T03:14:11.850Z,27.10
2019-05-01T03:16:41.433Z,26.57
2019-05-01T03:19:16.623Z,26.55
2019-05-01T03:21:56.493Z,27.30
2019-05-01T03:24:31.658Z,24.45
2019-05-01T03:27:00.424Z,24.45
2019-05-01T03:29:29.167Z,24.05
2019-05-01T03:32:15.874Z,24.47
2019-05-01T03:34:28.971Z,23.50
2019-05-01T03:36:57.738Z,26.20
2019-05-01T03:39:27.270Z,27.82
2019-05-01T03:41:56.686Z,27.15
2019-05-01T03:44:25.518Z,26.75
2019-05-01T03:46:54.777Z,23.75
2019-05-01T03:49:23.622Z,22.82
2019-05-01T03:51:52.561Z,22.70
2019-05-01T03:54:21.834Z,20.30
2019-05-01T03:56:50.577Z,19.20
2019-05-01T03:59:20.129Z,17.15
2019-05-01T04:01:53.490Z,16.02
2019-05-01T04:04:23.934Z,15.18
2019-05-01T04:06:52.633Z,16.62
2019-05-01T04:09:21.743Z,15.93
2019-05-01T04:11:50.693Z,17.42
2019-05-01T04:14:19.867Z,17.35
2019-05-01T04:16:50.578Z,20.08
2019-05-01T04:19:19.542Z,19.37
2019-05-01T04:21:52.638Z,18.00
2019-05-01T04:24:21.585Z,18.98
2019-05-01T04:26:50.367Z,18.77
2019-05-01T04:29:20.813Z,16.23
2019-05-01T04:31:54.223Z,20.97
2019-05-01T04:34:42.335Z,18.92
2019-05-01T04:37:13.324Z,20.05
2019-05-01T04:39:42.163Z,21.82
2019-05-01T04:42:10.926Z,23.70
2019-05-01T04:44:40.151Z,23.10
2019-05-01T04:47:09.020Z,20.35
2019-05-01T04:49:37.725Z,18.05
2019-05-01T04:52:06.489Z,16.02
2019-05-01T04:54:35.238Z,16.70
2019-05-01T04:57:04.530Z,15.70
2019-05-01T04:59:34.283Z,17.77
2019-05-01T05:02:04.966Z,17.98
2019-05-01T05:04:34.355Z,17.02
2019-05-01T05:07:03.218Z,17.23
2019-05-01T05:09:46.504Z,16.40
2019-05-01T05:12:20.788Z,16.97
2019-05-01T05:14:54.567Z,16.90
2019-05-01T05:17:24.125Z,17.87
2019-05-01T05:19:53.227Z,18.10
2019-05-01T05:22:23.178Z,18.82
2019-05-01T05:24:53.642Z,18.15
2019-05-01T05:27:24.955Z,17.75
2019-05-01T05:29:58.008Z,18.23
2019-05-01T05:32:28.807Z,17.60
2019-05-01T05:34:59.531Z,17.25
2019-05-01T05:37:34.516Z,16.62
2019-05-01T05:40:05.325Z,17.00
2019-05-01T05:42:34.476Z,16.73
2019-05-01T05:45:04.222Z,16.23
2019-05-01T05:47:34.051Z,15.32
2019-05-01T05:50:03.492Z,15.80
2019-05-01T05:52:37.456Z,15.63
2019-05-01T05:55:10.689Z,15.72
2019-05-01T05:57:44.017Z,16.30
2019-05-01T06:00:31.190Z,15.45
2019-05-01T06:03:04.499Z,15.93
2019-05-01T06:05:55.186Z,15.40
2019-05-01T06:08:27.779Z,16.35
2019-05-01T06:11:16.062Z,15.95
2019-05-01T06:13:57.096Z,15.95
2019-05-01T06:16:28.654Z,15.53
2019-05-01T06:19:01.870Z,16.75
2019-05-01T06:21:35.959Z,14.65
2019-05-01T06:24:09.257Z,15.45
2019-05-01T06:26:39.536Z,16.20
2019-05-01T06:29:08.439Z,15.05
2019-05-01T06:31:37.618Z,14.58
2019-05-01T06:34:06.391Z,14.50
2019-05-01T06:36:35.318Z,14.20
2019-05-01T06:39:06.795Z,13.53
2019-05-01T06:41:42.626Z,14.03
2019-05-01T06:44:11.658Z,14.28
2019-05-01T06:47:03.655Z,12.30
2019-05-01T06:49:33.992Z,13.38
2019-05-01T06:52:05.285Z,14.28
2019-05-01T06:54:35.429Z,14.28
2019-05-01T06:57:05.342Z,16.05
2019-05-01T06:59:35.490Z,16.00
2019-05-01T07:02:04.526Z,15.13
2019-05-01T07:04:37.945Z,15.40
2019-05-01T07:07:06.802Z,15.05
2019-05-01T07:09:37.214Z,15.08
2019-05-01T07:12:08.327Z,15.68
2019-05-01T07:14:37.681Z,14.87
2019-05-01T07:17:09.022Z,14.98
2019-05-01T07:19:54.214Z,15.83
2019-05-01T07:22:23.164Z,15.80
2019-05-01T07:24:53.044Z,16.48
2019-05-01T07:27:23.918Z,16.93
2019-05-01T07:29:53.955Z,16.10
2019-05-01T07:32:23.128Z,14.90
2019-05-01T07:34:51.972Z,12.37
2019-05-01T07:37:25.880Z,11.35
2019-05-01T07:39:51.862Z,11.18
2019-05-01T07:42:26.979Z,9.90
2019-05-01T07:45:03.879Z,9.38
2019-05-01T07:47:50.068Z,8.45
2019-05-01T07:50:19.324Z,8.40
2019-05-01T07:52:52.330Z,8.33
2019-05-01T07:55:37.405Z,9.65
2019-05-01T07:58:10.334Z,8.50
2019-05-01T08:01:04.561Z,8.40
2019-05-01T08:03:33.536Z,8.90
2019-05-01T08:06:02.291Z,10.32
2019-05-01T08:08:31.973Z,10.43
2019-05-01T08:11:05.292Z,10.68
2019-05-01T08:13:35.081Z,9.15
2019-05-01T08:16:02.113Z,10.20
2019-05-01T08:18:36.104Z,9.35
2019-05-01T08:21:21.051Z,8.63
2019-05-01T08:23:50.750Z,9.10
2019-05-01T08:26:19.361Z,10.82
2019-05-01T08:29:08.158Z,9.88
2019-05-01T08:31:47.872Z,9.68
2019-05-01T08:34:30.387Z,9.45
2019-05-01T08:36:59.141Z,10.05
2019-05-01T08:39:27.890Z,10.32
2019-05-01T08:41:56.515Z,10.03
2019-05-01T08:44:29.635Z,10.25
2019-05-01T08:47:01.443Z,9.90
2019-05-01T08:49:49.887Z,8.65
2019-05-01T08:52:17.540Z,8.60
2019-05-01T08:54:46.241Z,7.85
2019-05-01T08:57:15.027Z,8.18
2019-05-01T08:59:43.651Z,8.18
2019-05-01T09:02:12.311Z,6.97
2019-05-01T09:04:40.988Z,7.62
2019-05-01T09:07:09.682Z,7.15
2019-05-01T09:09:39.689Z,8.50
2019-05-01T09:12:11.842Z,7.97
2019-05-01T09:14:38.927Z,7.47
2019-05-01T09:17:07.292Z,7.60
2019-05-01T09:19:35.968Z,7.42
2019-05-01T09:22:04.737Z,8.15
2019-05-01T09:24:33.536Z,6.60
2019-05-01T09:27:18.559Z,6.83
2019-05-01T09:29:51.658Z,8.08
2019-05-01T09:32:18.832Z,7.15
2019-05-01T09:34:47.653Z,8.25
2019-05-01T09:37:16.514Z,7.40
2019-05-01T09:39:47.348Z,7.70
2019-05-01T09:42:22.917Z,8.68
2019-05-01T09:44:46.483Z,7.65
2019-05-01T09:47:15.249Z,10.10
2019-05-01T09:49:43.994Z,8.63
2019-05-01T09:52:30.454Z,9.28
2019-05-01T09:55:09.705Z,9.23
2019-05-01T09:57:41.473Z,8.83
2019-05-01T10:00:10.755Z,9.38
2019-05-01T10:02:42.141Z,8.55
2019-05-01T10:05:09.708Z,8.18
2019-05-01T10:07:41.377Z,9.98
2019-05-01T10:10:10.254Z,10.20
2019-05-01T10:12:41.793Z,9.78
2019-05-01T10:15:09.354Z,9.88
2019-05-01T10:17:38.914Z,8.93
2019-05-01T10:20:07.276Z,9.03
2019-05-01T10:22:37.471Z,9.63
2019-05-01T10:25:08.488Z,10.18
2019-05-01T10:27:38.472Z,9.73
2019-05-01T10:30:08.871Z,9.35
2019-05-01T10:32:41.445Z,9.55
2019-05-01T10:35:14.197Z,9.65
2019-05-01T10:37:41.402Z,10.65
2019-05-01T10:40:09.742Z,9.88
2019-05-01T10:42:40.972Z,9.95
2019-05-01T10:45:08.105Z,9.48
2019-05-01T10:47:37.408Z,9.33
2019-05-01T10:50:05.756Z,10.00
2019-05-01T10:52:34.062Z,10.65
2019-05-01T10:55:02.416Z,9.88
2019-05-01T10:57:35.100Z,10.30
2019-05-01T11:00:00.763Z,10.90
2019-05-01T11:02:29.057Z,10.58
2019-05-01T11:04:57.436Z,10.60
2019-05-01T11:07:25.730Z,10.95
2019-05-01T11:09:55.110Z,11.45
2019-05-01T11:12:23.454Z,9.93
2019-05-01T11:14:51.792Z,10.10
2019-05-01T11:17:20.150Z,12.00
2019-05-01T11:19:48.450Z,11.00
2019-05-01T11:22:16.725Z,11.55
2019-05-01T11:24:45.036Z,12.98
2019-05-01T11:27:13.534Z,12.13
2019-05-01T11:29:41.846Z,12.60
2019-05-01T11:32:11.843Z,12.60
2019-05-01T11:34:58.559Z,13.48
2019-05-01T11:37:32.321Z,12.45
2019-05-01T11:40:02.263Z,12.82
2019-05-01T11:42:30.538Z,12.85
2019-05-01T11:44:59.838Z,13.40
2019-05-01T11:47:28.140Z,12.73
2019-05-01T11:49:57.486Z,12.18
2019-05-01T11:52:25.871Z,14.53
2019-05-01T11:54:54.148Z,13.83
2019-05-01T11:57:22.458Z,13.88
2019-05-01T11:59:50.737Z,13.22
2019-05-01T12:02:19.074Z,13.05
2019-05-01T12:04:47.407Z,12.88
2019-05-01T12:07:15.680Z,12.98
2019-05-01T12:09:43.979Z,12.30
2019-05-01T12:12:13.965Z,12.90
2019-05-01T12:14:42.266Z,12.33
2019-05-01T12:17:17.921Z,13.58
2019-05-01T12:19:46.220Z,11.60
2019-05-01T12:22:14.581Z,12.40
2019-05-01T12:24:42.953Z,13.32
2019-05-01T12:27:11.298Z,14.07
2019-05-01T12:29:40.585Z,14.33
2019-05-01T12:32:09.337Z,13.40
2019-05-01T12:34:37.994Z,13.22
2019-05-01T12:37:17.343Z,14.53
2019-05-01T12:40:06.393Z,12.80
2019-05-01T12:42:35.620Z,14.70
2019-05-01T12:45:06.671Z,14.00
2019-05-01T12:47:38.144Z,13.60
2019-05-01T12:50:10.474Z,14.43
2019-05-01T12:52:46.639Z,14.30
2019-05-01T12:55:20.276Z,14.43
2019-05-01T12:57:48.896Z,14.83
2019-05-01T13:00:19.827Z,14.05
2019-05-01T13:02:48.618Z,14.25
2019-05-01T13:05:17.297Z,16.35
2019-05-01T13:07:47.021Z,14.68
2019-05-01T13:10:15.878Z,15.88
2019-05-01T13:12:44.581Z,14.25
2019-05-01T13:15:13.397Z,14.73
2019-05-01T13:17:42.101Z,14.05
2019-05-01T13:20:10.899Z,14.85
2019-05-01T13:22:39.539Z,14.63
2019-05-01T13:25:08.297Z,13.90
2019-05-01T13:27:42.132Z,14.38
2019-05-01T13:30:23.499Z,15.40
2019-05-01T13:32:56.368Z,16.37
2019-05-01T13:35:25.120Z,14.60
2019-05-01T13:37:54.792Z,16.02
2019-05-01T13:40:23.540Z,14.60
2019-05-01T13:42:52.249Z,14.68
2019-05-01T13:45:21.098Z,13.95
2019-05-01T13:47:49.748Z,14.50
2019-05-01T13:50:18.497Z,13.55
2019-05-01T13:52:47.320Z,13.60
2019-05-01T13:55:16.373Z,12.45
2019-05-01T13:57:45.272Z,13.32
2019-05-01T14:00:15.001Z,12.63
2019-05-01T14:02:43.613Z,12.40
2019-05-01T14:05:12.502Z,12.65
2019-05-01T14:07:42.223Z,13.83
2019-05-01T14:10:11.191Z,12.82
2019-05-01T14:12:39.872Z,13.15
2019-05-01T14:15:08.764Z,13.30
2019-05-01T14:17:37.392Z,13.40
2019-05-01T14:20:08.717Z,15.00
2019-05-01T14:22:39.000Z,12.70
2019-05-01T14:25:09.693Z,13.53
2019-05-01T14:27:38.329Z,14.00
2019-05-01T14:30:09.370Z,13.38
2019-05-01T14:32:39.308Z,13.98
2019-05-01T14:35:08.916Z,13.78
2019-05-01T14:37:37.889Z,11.97
2019-05-01T14:40:07.352Z,13.83
2019-05-01T14:42:36.291Z,15.43
2019-05-01T14:45:08.022Z,13.72
2019-05-01T14:47:36.793Z,14.60
2019-05-01T14:50:07.054Z,14.28
2019-05-01T14:52:37.136Z,15.13
2019-05-01T14:55:07.350Z,14.28
2019-05-01T14:57:36.019Z,13.20
2019-05-01T15:00:06.501Z,13.80
2019-05-01T15:02:35.378Z,13.55
2019-05-01T15:05:07.642Z,14.15
2019-05-01T15:07:43.391Z,14.13
2019-05-01T15:10:07.182Z,13.78
2019-05-01T15:12:35.952Z,13.75
2019-05-01T15:15:24.247Z,14.90
2019-05-01T15:18:10.883Z,15.15
2019-05-01T15:20:39.564Z,15.80
2019-05-01T15:23:08.215Z,15.20
2019-05-01T15:25:36.903Z,14.60
2019-05-01T15:28:05.707Z,15.98
2019-05-01T15:30:34.385Z,15.53
2019-05-01T15:33:03.091Z,16.27
2019-05-01T15:35:31.703Z,15.85
2019-05-01T15:38:00.409Z,16.80
2019-05-01T15:40:33.431Z,16.52
2019-05-01T15:43:03.782Z,15.68
2019-05-01T15:45:32.478Z,16.00
2019-05-01T15:48:01.169Z,16.80
2019-05-01T15:50:29.909Z,17.12
2019-05-01T15:52:58.520Z,16.23
2019-05-01T15:55:27.176Z,17.05
2019-05-01T15:57:55.878Z,17.50
2019-05-01T16:00:24.569Z,18.40
2019-05-01T16:02:53.256Z,17.40
2019-05-01T16:05:21.966Z,15.63
2019-05-01T16:07:51.531Z,15.85
2019-05-01T16:10:21.957Z,15.38
2019-05-01T16:12:52.226Z,16.10
2019-05-01T16:15:24.922Z,15.50
2019-05-01T16:17:53.242Z,14.05
2019-05-01T16:20:21.531Z,13.98
2019-05-01T16:22:50.808Z,14.35
2019-05-01T16:25:19.109Z,13.30
2019-05-01T16:27:48.432Z,13.95
2019-05-01T16:30:18.709Z,12.95
2019-05-01T16:32:47.014Z,13.75
2019-05-01T16:35:15.367Z,13.38
2019-05-01T16:37:43.712Z,13.10
2019-05-01T16:40:13.713Z,13.15
2019-05-01T16:42:42.012Z,12.40
2019-05-01T16:45:11.094Z,11.97
2019-05-01T16:47:39.488Z,12.30
2019-05-01T16:50:08.237Z,12.53
2019-05-01T16:52:37.696Z,12.00
2019-05-01T16:55:06.947Z,11.97
2019-05-01T16:57:35.322Z,11.90
2019-05-01T17:00:06.156Z,12.05
2019-05-01T17:02:48.213Z,12.88
2019-05-01T17:05:24.329Z,12.25
2019-05-01T17:07:57.184Z,12.45
2019-05-01T17:10:32.952Z,12.82
2019-05-01T17:13:01.248Z,12.55
2019-05-01T17:15:31.210Z,12.75
2019-05-01T17:17:59.590Z,13.13
2019-05-01T17:20:28.138Z,12.80
2019-05-01T17:22:56.425Z,13.15
2019-05-01T17:25:24.791Z,12.28
2019-05-01T17:27:55.107Z,13.25
2019-05-01T17:30:26.585Z,12.98
2019-05-01T17:32:55.291Z,13.30
2019-05-01T17:35:23.925Z,13.15
2019-05-01T17:37:53.642Z,12.98
2019-05-01T17:40:22.370Z,14.30
2019-05-01T17:42:50.985Z,12.68
2019-05-01T17:45:19.669Z,13.30
2019-05-01T17:47:48.298Z,13.48
2019-05-01T17:50:21.127Z,12.13
2019-05-01T17:52:47.405Z,12.55
2019-05-01T17:55:16.224Z,11.97
2019-05-01T17:57:44.969Z,13.45
2019-05-01T18:00:30.621Z,12.47
2019-05-01T18:03:19.487Z,11.80
2019-05-01T18:06:00.765Z,12.00
2019-05-01T18:08:26.489Z,11.80
2019-05-01T18:10:54.778Z,12.23
2019-05-01T18:13:23.434Z,12.07
2019-05-01T18:15:52.037Z,11.08
2019-05-01T18:18:20.830Z,11.95
2019-05-01T18:20:49.684Z,12.18
2019-05-01T18:23:36.193Z,11.73
2019-05-01T18:26:23.862Z,11.70
2019-05-01T18:28:54.363Z,12.63
2019-05-01T18:31:28.013Z,10.88
2019-05-01T18:33:57.102Z,11.30
2019-05-01T18:36:27.082Z,12.05
2019-05-01T18:38:59.758Z,11.83
2019-05-01T18:41:29.712Z,11.38
2019-05-01T18:43:58.024Z,11.78
2019-05-01T18:46:26.334Z,12.60
2019-05-01T18:48:56.842Z,12.63
2019-05-01T18:51:25.859Z,12.23
2019-05-01T18:53:57.375Z,11.78
2019-05-01T18:56:25.185Z,12.47
2019-05-01T18:58:54.059Z,12.43
2019-05-01T19:01:22.959Z,12.23
2019-05-01T19:03:51.775Z,12.37
2019-05-01T19:06:20.766Z,12.75
2019-05-01T19:08:49.743Z,13.05
2019-05-01T19:11:20.541Z,12.95
2019-05-01T19:13:49.641Z,14.15
2019-05-01T19:16:19.483Z,13.20
2019-05-01T19:18:48.274Z,13.88
2019-05-01T19:21:19.102Z,13.45
2019-05-01T19:23:48.065Z,12.80
2019-05-01T19:26:18.614Z,12.47
2019-05-01T19:28:47.442Z,11.83
2019-05-01T19:31:16.327Z,11.68
2019-05-01T19:33:44.833Z,11.63
2019-05-01T19:36:13.329Z,12.23
2019-05-01T19:38:41.813Z,11.50
2019-05-01T19:41:14.105Z,11.70
2019-05-01T19:43:42.023Z,10.90
2019-05-01T19:46:10.427Z,11.68
2019-05-01T19:48:39.116Z,11.65
2019-05-01T19:51:07.983Z,12.05
2019-05-01T19:53:36.664Z,13.50
2019-05-01T19:56:06.472Z,13.98
2019-05-01T19:58:35.225Z,13.75
2019-05-01T20:01:04.962Z,15.50
2019-05-01T20:03:36.416Z,14.65
2019-05-01T20:06:06.010Z,16.05
2019-05-01T20:08:34.918Z,15.13
2019-05-01T20:11:03.700Z,16.10
2019-05-01T20:13:32.596Z,17.23
2019-05-01T20:16:01.489Z,16.30
2019-05-01T20:18:30.176Z,14.35
2019-05-01T20:20:58.858Z,14.25
2019-05-01T20:23:31.355Z,14.15
2019-05-01T20:25:57.883Z,14.13
2019-05-01T20:28:28.328Z,13.35
2019-05-01T20:30:56.949Z,14.53
2019-05-01T20:33:25.759Z,14.63
2019-05-01T20:35:54.505Z,15.32
2019-05-01T20:38:23.118Z,12.53
2019-05-01T20:40:51.745Z,13.25
2019-05-01T20:43:20.451Z,12.55
2019-05-01T20:45:51.141Z,12.90
2019-05-01T20:48:23.646Z,14.30
2019-05-01T20:50:49.693Z,13.85
2019-05-01T20:53:18.300Z,13.70
2019-05-01T20:55:48.571Z,13.90
2019-05-01T20:58:18.325Z,14.33
2019-05-01T21:00:53.573Z,14.68
2019-05-01T21:03:19.667Z,15.60
2019-05-01T21:05:53.150Z,15.05
2019-05-01T21:08:39.245Z,14.15
2019-05-01T21:11:12.921Z,15.15
2019-05-01T21:13:41.291Z,14.63
2019-05-01T21:16:09.987Z,16.17
2019-05-01T21:18:38.605Z,17.92
2019-05-01T21:21:07.239Z,18.37
2019-05-01T21:23:35.974Z,20.43
2019-05-01T21:26:04.750Z,19.10
2019-05-01T21:28:34.083Z,19.48
2019-05-01T21:31:03.897Z,20.08
2019-05-01T21:33:33.988Z,20.43
2019-05-01T21:36:22.250Z,21.87
2019-05-01T21:38:50.912Z,22.15
2019-05-01T21:41:19.549Z,21.77
2019-05-01T21:43:48.227Z,23.18
2019-05-01T21:46:16.889Z,22.35
2019-05-01T21:48:45.574Z,24.37
2019-05-01T21:51:14.278Z,25.32
2019-05-01T21:53:46.320Z,24.23
2019-05-01T21:56:13.269Z,25.48
2019-05-01T21:58:41.986Z,26.23
2019-05-01T22:01:10.752Z,25.55
2019-05-01T22:03:39.458Z,28.00
2019-05-01T22:06:11.249Z,25.43
2019-05-01T22:08:39.134Z,27.20
2019-05-01T22:11:09.307Z,26.40
2019-05-01T22:13:37.948Z,29.90
2019-05-01T22:16:08.265Z,29.07
2019-05-01T22:18:38.681Z,27.37
2019-05-01T22:21:11.782Z,29.75
2019-05-01T22:23:58.678Z,30.27
2019-05-01T22:26:29.022Z,28.62
2019-05-01T22:28:59.449Z,28.77
2019-05-01T22:31:44.596Z,28.65
2019-05-01T22:34:30.957Z,30.90
2019-05-01T22:36:59.720Z,30.85
2019-05-01T22:39:30.129Z,29.82
2019-05-01T22:41:59.081Z,30.57
2019-05-01T22:44:27.762Z,29.65
2019-05-01T22:46:56.445Z,33.85
2019-05-01T22:49:25.241Z,31.12
2019-05-01T22:51:53.854Z,32.25
2019-05-01T22:54:22.480Z,33.23
2019-05-01T22:56:51.223Z,31.25
2019-05-01T22:59:19.973Z,31.62
2019-05-01T23:01:53.013Z,30.97
2019-05-01T23:04:20.651Z,30.40
2019-05-01T23:06:49.533Z,31.17
2019-05-01T23:09:23.445Z,30.52
2019-05-01T23:11:50.441Z,30.52
2019-05-01T23:14:19.684Z,30.55
2019-05-01T23:17:03.295Z,29.85
2019-05-01T23:19:29.636Z,31.60
2019-05-01T23:21:58.479Z,28.67
2019-05-01T23:24:27.271Z,30.48
2019-05-01T23:26:55.967Z,30.88
2019-05-01T23:29:24.727Z,30.10
2019-05-01T23:31:53.355Z,31.62
2019-05-01T23:34:26.229Z,30.20
2019-05-01T23:36:52.386Z,29.07
2019-05-01T23:39:20.989Z,28.65
2019-05-01T23:41:49.783Z,31.57
2019-05-01T23:44:18.467Z,28.92
2019-05-01T23:46:47.439Z,29.18
2019-05-01T23:49:16.089Z,30.65
2019-05-01T23:51:44.703Z,30.10
2019-05-01T23:54:13.324Z,29.75
2019-05-01T23:56:42.044Z,30.32
2019-05-01T23:59:10.740Z,29.75
